ESGJ

Jönköping Airport

Jönköping, Sweden
METAR ESGJ 220250Z AUTO 22019G31KT 9999 SCT015/// BKN019/// OVC026/// 09/07 Q0994
Observed Flight Rules
Sep-22 @ 02:50 UTC (35 minutes ago) Marginal Visual Flight Rules
Wind Visibility Clouds
220° at 19 knots
 Gusting to 31 knots
10,000+ meters
Temperatures Readings
Current 9°C / 48°F
Dewpoint 7°C / 45°F
Humidity 87%
Altimeter 29.35" Hg
Pressure 994 hPa
Elevation 232
METAR ESGJ 220250Z AUTO 22019G31KT 9999 SCT015/// BKN019/// OVC026/// 09/07 Q0994
Observed Flight Rules
Sep-22 @ 02:50 UTC
(35 minutes ago)
MVFR
Wind Visibility
220° at 19 knots
 Gusting to 31 knots
10,000+ meters
Clouds
Temperature Dewpoint
9°C / 48°F 7°C / 45°F
Humidity Altimeter Pressure
87% 29.35" Hg 994 hPa